AUA31A UKLL-LOWG
Flight info
| Callsign | AUA31A |
|---|---|
| Flight time | 1h 4m |
| Altitude | 36000 |
| Route | KOKUP Q560 LONLA DCT HUZTA DCT GOTAR GOTAR3M |
| Aircraft | A320/M-SDE3FGHIRWY/LB1 |
Departure
| Time | 2026-04-22 19:00 |
|---|---|
| Airport | Lviv International Airport (UKLL) |
Arrival
| Time | 2026-04-22 20:04 |
|---|---|
| Airport | Graz Airport (LOWG) |
| Time | Latitude | Longitude | Altitude | Speed | Heading |
|---|---|---|---|---|---|
| 2026-04-22 18:16 | 49.81320 | 23.95837 | 1068 ft | 0 kts | 45° |
| 2026-04-22 18:33 | 49.81314 | 23.95828 | 1066 ft | 4 kts | 46° |
| 2026-04-22 18:34 | 49.81297 | 23.95797 | 1066 ft | 4 kts | 53° |
| 2026-04-22 18:34 | 49.81285 | 23.95768 | 1068 ft | 4 kts | 66° |
| 2026-04-22 18:34 | 49.81279 | 23.95742 | 1068 ft | 4 kts | 90° |
| 2026-04-22 18:34 | 49.81283 | 23.95716 | 1068 ft | 1 kts | 135° |
| 2026-04-22 18:35 | 49.81286 | 23.95712 | 1068 ft | 0 kts | 135° |
| 2026-04-22 18:44 | 49.81284 | 23.95715 | 1066 ft | 3 kts | 135° |
| 2026-04-22 18:44 | 49.81246 | 23.95774 | 1066 ft | 13 kts | 135° |
| 2026-04-22 18:44 | 49.81156 | 23.95908 | 1066 ft | 20 kts | 136° |
| 2026-04-22 18:45 | 49.81079 | 23.96019 | 1066 ft | 10 kts | 153° |
| 2026-04-22 18:45 | 49.81045 | 23.96034 | 1066 ft | 3 kts | 175° |
| 2026-04-22 18:45 | 49.81027 | 23.96034 | 1066 ft | 0 kts | 181° |
| 2026-04-22 18:50 | 49.81028 | 23.96034 | 1066 ft | 0 kts | 181° |
| 2026-04-22 18:52 | 49.81023 | 23.96034 | 1066 ft | 4 kts | 181° |
| 2026-04-22 18:52 | 49.80957 | 23.96032 | 1068 ft | 14 kts | 182° |
| 2026-04-22 18:53 | 49.80864 | 23.96033 | 1065 ft | 14 kts | 166° |
| 2026-04-22 18:53 | 49.80783 | 23.96126 | 1065 ft | 17 kts | 136° |
| 2026-04-22 18:53 | 49.80689 | 23.96267 | 1066 ft | 21 kts | 135° |
| 2026-04-22 18:53 | 49.80573 | 23.96440 | 1066 ft | 25 kts | 136° |
| 2026-04-22 18:54 | 49.80432 | 23.96651 | 1064 ft | 30 kts | 135° |
| 2026-04-22 18:54 | 49.80272 | 23.96892 | 1064 ft | 34 kts | 136° |
| 2026-04-22 18:54 | 49.80098 | 23.97153 | 1066 ft | 32 kts | 135° |
| 2026-04-22 18:54 | 49.79999 | 23.97325 | 1065 ft | 14 kts | 109° |
| 2026-04-22 18:55 | 49.79956 | 23.97436 | 1065 ft | 12 kts | 164° |
| 2026-04-22 18:55 | 49.79953 | 23.97368 | 1065 ft | 10 kts | 320° |
| 2026-04-22 18:55 | 49.80004 | 23.97293 | 1065 ft | 11 kts | 316° |
| 2026-04-22 18:55 | 49.80023 | 23.97264 | 1065 ft | 0 kts | 316° |
| 2026-04-22 18:59 | 49.80026 | 23.97261 | 1065 ft | 4 kts | 316° |
| 2026-04-22 18:59 | 49.80162 | 23.97056 | 1064 ft | 63 kts | 315° |
| 2026-04-22 18:59 | 49.80651 | 23.96321 | 1066 ft | 129 kts | 315° |
| 2026-04-22 19:00 | 49.81133 | 23.95596 | 1103 ft | 158 kts | 315° |
| 2026-04-22 19:00 | 49.82214 | 23.94025 | 2124 ft | 161 kts | 319° |
| 2026-04-22 19:00 | 49.83059 | 23.92850 | 2879 ft | 167 kts | 318° |
| 2026-04-22 19:00 | 49.83984 | 23.91543 | 3137 ft | 198 kts | 318° |
| 2026-04-22 19:01 | 49.85073 | 23.90007 | 3608 ft | 224 kts | 318° |
| 2026-04-22 19:01 | 49.86264 | 23.88332 | 4341 ft | 238 kts | 318° |
| 2026-04-22 19:01 | 49.86561 | 23.87912 | 4579 ft | 239 kts | 317° |
| 2026-04-22 19:01 | 49.87804 | 23.86154 | 5484 ft | 247 kts | 317° |
| 2026-04-22 19:02 | 49.89083 | 23.84334 | 6010 ft | 252 kts | 317° |
| 2026-04-22 19:02 | 49.90142 | 23.82187 | 6975 ft | 256 kts | 292° |
| 2026-04-22 19:02 | 49.90277 | 23.79508 | 7833 ft | 269 kts | 260° |
| 2026-04-22 19:02 | 49.90028 | 23.78320 | 8216 ft | 274 kts | 249° |
| 2026-04-22 19:03 | 49.89018 | 23.75762 | 9150 ft | 284 kts | 232° |
| 2026-04-22 19:03 | 49.87484 | 23.73803 | 10023 ft | 295 kts | 216° |
| 2026-04-22 19:03 | 49.85663 | 23.72009 | 10449 ft | 318 kts | 214° |
| 2026-04-22 19:03 | 49.83754 | 23.70173 | 10966 ft | 334 kts | 214° |
| 2026-04-22 19:04 | 49.81756 | 23.68279 | 11736 ft | 340 kts | 213° |
| 2026-04-22 19:04 | 49.79715 | 23.66351 | 12558 ft | 346 kts | 213° |
| 2026-04-22 19:04 | 49.77644 | 23.64390 | 13357 ft | 351 kts | 213° |
| 2026-04-22 19:04 | 49.75546 | 23.62400 | 14124 ft | 356 kts | 212° |
| 2026-04-22 19:05 | 49.73420 | 23.60384 | 14803 ft | 361 kts | 212° |
| 2026-04-22 19:05 | 49.71260 | 23.58334 | 15481 ft | 366 kts | 212° |
| 2026-04-22 19:05 | 49.69076 | 23.56256 | 16153 ft | 372 kts | 212° |
| 2026-04-22 19:05 | 49.66859 | 23.54148 | 16813 ft | 377 kts | 212° |
| 2026-04-22 19:06 | 49.64610 | 23.52013 | 17479 ft | 382 kts | 212° |
| 2026-04-22 19:06 | 49.62328 | 23.49849 | 18146 ft | 387 kts | 212° |
| 2026-04-22 19:06 | 49.60050 | 23.47695 | 18725 ft | 392 kts | 211° |
| 2026-04-22 19:07 | 49.55400 | 23.43308 | 19848 ft | 401 kts | 211° |
| 2026-04-22 19:07 | 49.53000 | 23.41044 | 20412 ft | 406 kts | 211° |
| 2026-04-22 19:07 | 49.50576 | 23.38759 | 20970 ft | 410 kts | 211° |
| 2026-04-22 19:07 | 49.48131 | 23.36452 | 21529 ft | 415 kts | 210° |
| 2026-04-22 19:08 | 49.45656 | 23.34120 | 22070 ft | 419 kts | 210° |
| 2026-04-22 19:08 | 49.43157 | 23.31771 | 22601 ft | 423 kts | 210° |
| 2026-04-22 19:08 | 49.40627 | 23.29397 | 23143 ft | 428 kts | 210° |
| 2026-04-22 19:08 | 49.38073 | 23.27005 | 23665 ft | 432 kts | 210° |
| 2026-04-22 19:09 | 49.35495 | 23.24594 | 24105 ft | 436 kts | 210° |
| 2026-04-22 19:09 | 49.32898 | 23.22165 | 24554 ft | 439 kts | 210° |
| 2026-04-22 19:09 | 49.31166 | 23.20547 | 24855 ft | 441 kts | 209° |
| 2026-04-22 19:09 | 49.27677 | 23.17293 | 25427 ft | 445 kts | 209° |
| 2026-04-22 19:10 | 49.25018 | 23.14821 | 25873 ft | 448 kts | 209° |
| 2026-04-22 19:10 | 49.22343 | 23.12343 | 26317 ft | 451 kts | 209° |
| 2026-04-22 19:10 | 49.19649 | 23.09850 | 26729 ft | 455 kts | 208° |
| 2026-04-22 19:10 | 49.16896 | 23.07301 | 27134 ft | 458 kts | 208° |
| 2026-04-22 19:11 | 49.14199 | 23.04805 | 27526 ft | 461 kts | 208° |
| 2026-04-22 19:11 | 49.11820 | 23.02603 | 27024 ft | 463 kts | 210° |
| 2026-04-22 19:11 | 49.09124 | 23.00104 | 28027 ft | 445 kts | 211° |
| 2026-04-22 19:11 | 49.06643 | 22.97811 | 29029 ft | 431 kts | 211° |
| 2026-04-22 19:12 | 49.04143 | 22.95506 | 29604 ft | 428 kts | 211° |
| 2026-04-22 19:12 | 49.01572 | 22.93141 | 30939 ft | 436 kts | 207° |
| 2026-04-22 19:12 | 48.98948 | 22.90734 | 31079 ft | 446 kts | 207° |
| 2026-04-22 19:13 | 48.95126 | 22.87235 | 31263 ft | 458 kts | 207° |
| 2026-04-22 19:13 | 48.92366 | 22.84713 | 31383 ft | 467 kts | 207° |
| 2026-04-22 19:13 | 48.89564 | 22.82155 | 31526 ft | 475 kts | 207° |
| 2026-04-22 19:13 | 48.86712 | 22.79549 | 31647 ft | 482 kts | 207° |
| 2026-04-22 19:14 | 48.83819 | 22.76904 | 31800 ft | 488 kts | 207° |
| 2026-04-22 19:14 | 48.80900 | 22.74237 | 32083 ft | 490 kts | 208° |
| 2026-04-22 19:14 | 48.77978 | 22.71570 | 32458 ft | 490 kts | 207° |
| 2026-04-22 19:14 | 48.75057 | 22.68913 | 32850 ft | 489 kts | 207° |
| 2026-04-22 19:15 | 48.73121 | 22.67157 | 33136 ft | 489 kts | 207° |
| 2026-04-22 19:15 | 48.69262 | 22.63661 | 33703 ft | 487 kts | 208° |
| 2026-04-22 19:15 | 48.66355 | 22.61031 | 34162 ft | 486 kts | 208° |
| 2026-04-22 19:15 | 48.63453 | 22.58406 | 34509 ft | 485 kts | 208° |
| 2026-04-22 19:16 | 48.60553 | 22.55791 | 34884 ft | 483 kts | 208° |
| 2026-04-22 19:16 | 48.57679 | 22.53199 | 35259 ft | 481 kts | 208° |
| 2026-04-22 19:16 | 48.55780 | 22.51483 | 35500 ft | 480 kts | 208° |
| 2026-04-22 19:16 | 48.52875 | 22.48862 | 35834 ft | 479 kts | 208° |
| 2026-04-22 19:17 | 48.50046 | 22.46317 | 36048 ft | 479 kts | 209° |
| 2026-04-22 19:17 | 48.44367 | 22.41228 | 36100 ft | 471 kts | 208° |
| 2026-04-22 19:18 | 48.38823 | 22.36034 | 36098 ft | 470 kts | 217° |
| 2026-04-22 19:18 | 48.34370 | 22.28880 | 36100 ft | 471 kts | 238° |
| 2026-04-22 19:19 | 48.31725 | 22.19964 | 36101 ft | 467 kts | 256° |
| 2026-04-22 19:19 | 48.29943 | 22.10550 | 36100 ft | 468 kts | 256° |
| 2026-04-22 19:20 | 48.28153 | 22.01156 | 36101 ft | 468 kts | 256° |
| 2026-04-22 19:20 | 48.26348 | 21.91766 | 36104 ft | 468 kts | 256° |
| 2026-04-22 19:21 | 48.24535 | 21.82391 | 36112 ft | 468 kts | 255° |
| 2026-04-22 19:21 | 48.22727 | 21.73074 | 36115 ft | 467 kts | 255° |
| 2026-04-22 19:22 | 48.20908 | 21.63727 | 36109 ft | 467 kts | 255° |
| 2026-04-22 19:22 | 48.19076 | 21.54381 | 36106 ft | 467 kts | 255° |
| 2026-04-22 19:23 | 48.17243 | 21.45037 | 36113 ft | 467 kts | 255° |
| 2026-04-22 19:23 | 48.15396 | 21.35725 | 36121 ft | 466 kts | 255° |
| 2026-04-22 19:24 | 48.13540 | 21.26425 | 36121 ft | 466 kts | 255° |
| 2026-04-22 19:24 | 48.11691 | 21.17141 | 36119 ft | 465 kts | 255° |
| 2026-04-22 19:25 | 48.09834 | 21.07864 | 36116 ft | 465 kts | 255° |
| 2026-04-22 19:25 | 48.07964 | 20.98597 | 36116 ft | 465 kts | 255° |
| 2026-04-22 19:26 | 48.06081 | 20.89343 | 36115 ft | 465 kts | 255° |
| 2026-04-22 19:26 | 48.04201 | 20.80088 | 36107 ft | 465 kts | 255° |
| 2026-04-22 19:27 | 48.02325 | 20.70919 | 36115 ft | 464 kts | 255° |
| 2026-04-22 19:27 | 48.00434 | 20.61713 | 36116 ft | 464 kts | 254° |
| 2026-04-22 19:28 | 47.98539 | 20.52505 | 36111 ft | 463 kts | 254° |
| 2026-04-22 19:28 | 47.96640 | 20.43312 | 36108 ft | 463 kts | 254° |
| 2026-04-22 19:29 | 47.94722 | 20.34134 | 36109 ft | 463 kts | 254° |
| 2026-04-22 19:29 | 47.92802 | 20.24963 | 36102 ft | 463 kts | 254° |
| 2026-04-22 19:30 | 47.91205 | 20.17338 | 36107 ft | 463 kts | 254° |
| 2026-04-22 19:30 | 47.88949 | 20.06635 | 36109 ft | 463 kts | 254° |
| 2026-04-22 19:31 | 47.87010 | 19.97491 | 36116 ft | 463 kts | 254° |
| 2026-04-22 19:31 | 47.85064 | 19.88352 | 36108 ft | 463 kts | 254° |
| 2026-04-22 19:32 | 47.83105 | 19.79231 | 36115 ft | 463 kts | 253° |
| 2026-04-22 19:32 | 47.81141 | 19.70096 | 36104 ft | 463 kts | 254° |
| 2026-04-22 19:33 | 47.79180 | 19.60991 | 36122 ft | 463 kts | 254° |
| 2026-04-22 19:33 | 47.77216 | 19.51930 | 36135 ft | 462 kts | 254° |
| 2026-04-22 19:34 | 47.75234 | 19.42841 | 36133 ft | 462 kts | 253° |
| 2026-04-22 19:34 | 47.73250 | 19.33778 | 36137 ft | 461 kts | 253° |
| 2026-04-22 19:35 | 47.71261 | 19.24703 | 36118 ft | 461 kts | 253° |
| 2026-04-22 19:35 | 47.69267 | 19.15646 | 36121 ft | 462 kts | 253° |
| 2026-04-22 19:36 | 47.67261 | 19.06599 | 36135 ft | 462 kts | 253° |
| 2026-04-22 19:36 | 47.65251 | 18.97557 | 36140 ft | 461 kts | 253° |
| 2026-04-22 19:37 | 47.63252 | 18.88593 | 36148 ft | 461 kts | 253° |
| 2026-04-22 19:37 | 47.61222 | 18.79572 | 36152 ft | 461 kts | 253° |
| 2026-04-22 19:38 | 47.59188 | 18.70559 | 36143 ft | 461 kts | 253° |
| 2026-04-22 19:38 | 47.57145 | 18.61534 | 36153 ft | 461 kts | 253° |
| 2026-04-22 19:39 | 47.55096 | 18.52543 | 36170 ft | 461 kts | 253° |
| 2026-04-22 19:39 | 47.53041 | 18.43566 | 36177 ft | 460 kts | 253° |
| 2026-04-22 19:40 | 47.50989 | 18.34603 | 36176 ft | 460 kts | 253° |
| 2026-04-22 19:40 | 47.48937 | 18.25653 | 36183 ft | 460 kts | 253° |
| 2026-04-22 19:41 | 47.46861 | 18.16718 | 36170 ft | 459 kts | 253° |
| 2026-04-22 19:41 | 47.44787 | 18.07798 | 36182 ft | 459 kts | 253° |
| 2026-04-22 19:42 | 47.42711 | 17.98870 | 36183 ft | 459 kts | 253° |
| 2026-04-22 19:42 | 47.40617 | 17.89938 | 36164 ft | 461 kts | 252° |
| 2026-04-22 19:43 | 47.37443 | 17.76477 | 36165 ft | 465 kts | 252° |
| 2026-04-22 19:43 | 47.35312 | 17.67457 | 36154 ft | 466 kts | 252° |
| 2026-04-22 19:44 | 47.33173 | 17.58458 | 35836 ft | 462 kts | 252° |
| 2026-04-22 19:44 | 47.32125 | 17.54066 | 35361 ft | 458 kts | 252° |
| 2026-04-22 19:44 | 47.31053 | 17.49581 | 34792 ft | 458 kts | 252° |
| 2026-04-22 19:45 | 47.29998 | 17.45160 | 34244 ft | 457 kts | 252° |
| 2026-04-22 19:45 | 47.28957 | 17.40808 | 33591 ft | 456 kts | 252° |
| 2026-04-22 19:45 | 47.27903 | 17.36412 | 32948 ft | 455 kts | 252° |
| 2026-04-22 19:45 | 47.26849 | 17.32024 | 32314 ft | 454 kts | 251° |
| 2026-04-22 19:46 | 47.25774 | 17.27653 | 31691 ft | 454 kts | 250° |
| 2026-04-22 19:46 | 47.24662 | 17.23311 | 31092 ft | 453 kts | 249° |
| 2026-04-22 19:46 | 47.23522 | 17.18983 | 30527 ft | 452 kts | 249° |
| 2026-04-22 19:46 | 47.22378 | 17.14687 | 29932 ft | 450 kts | 249° |
| 2026-04-22 19:47 | 47.21236 | 17.10416 | 29290 ft | 447 kts | 249° |
| 2026-04-22 19:47 | 47.20107 | 17.06171 | 28672 ft | 445 kts | 249° |
| 2026-04-22 19:47 | 47.19350 | 17.03307 | 28260 ft | 443 kts | 249° |
| 2026-04-22 19:47 | 47.17882 | 16.97739 | 27479 ft | 439 kts | 250° |
| 2026-04-22 19:48 | 47.16777 | 16.93558 | 26883 ft | 436 kts | 250° |
| 2026-04-22 19:48 | 47.15685 | 16.89422 | 26324 ft | 432 kts | 250° |
| 2026-04-22 19:48 | 47.14598 | 16.85316 | 25763 ft | 429 kts | 250° |
| 2026-04-22 19:48 | 47.13521 | 16.81253 | 25213 ft | 425 kts | 250° |
| 2026-04-22 19:49 | 47.12450 | 16.77226 | 24670 ft | 421 kts | 250° |
| 2026-04-22 19:49 | 47.11381 | 16.73224 | 24140 ft | 418 kts | 250° |
| 2026-04-22 19:49 | 47.10335 | 16.69317 | 23586 ft | 415 kts | 250° |
| 2026-04-22 19:49 | 47.09283 | 16.65397 | 22958 ft | 412 kts | 251° |
| 2026-04-22 19:50 | 47.08236 | 16.61494 | 22359 ft | 409 kts | 251° |
| 2026-04-22 19:50 | 47.07210 | 16.57672 | 21751 ft | 396 kts | 251° |
| 2026-04-22 19:50 | 47.06215 | 16.53977 | 21165 ft | 383 kts | 251° |
| 2026-04-22 19:50 | 47.05250 | 16.50399 | 20546 ft | 372 kts | 251° |
| 2026-04-22 19:51 | 47.04311 | 16.46919 | 19928 ft | 363 kts | 251° |
| 2026-04-22 19:51 | 47.03392 | 16.43513 | 19341 ft | 356 kts | 251° |
| 2026-04-22 19:51 | 47.02488 | 16.40170 | 18757 ft | 350 kts | 252° |
| 2026-04-22 19:51 | 47.01593 | 16.36859 | 18124 ft | 347 kts | 252° |
| 2026-04-22 19:52 | 47.00709 | 16.33598 | 17462 ft | 343 kts | 252° |
| 2026-04-22 19:52 | 46.99823 | 16.30342 | 16827 ft | 345 kts | 251° |
| 2026-04-22 19:52 | 46.98936 | 16.27080 | 16217 ft | 345 kts | 251° |
| 2026-04-22 19:52 | 46.98053 | 16.23836 | 15730 ft | 341 kts | 251° |
| 2026-04-22 19:53 | 46.97178 | 16.20624 | 15247 ft | 338 kts | 251° |
| 2026-04-22 19:53 | 46.96310 | 16.17429 | 14772 ft | 338 kts | 251° |
| 2026-04-22 19:53 | 46.95733 | 16.15306 | 14462 ft | 339 kts | 251° |
| 2026-04-22 19:53 | 46.94560 | 16.11005 | 13822 ft | 341 kts | 251° |
| 2026-04-22 19:54 | 46.93676 | 16.07776 | 13306 ft | 342 kts | 251° |
| 2026-04-22 19:54 | 46.92788 | 16.04548 | 12794 ft | 342 kts | 251° |
| 2026-04-22 19:54 | 46.91900 | 16.01328 | 12287 ft | 341 kts | 251° |
| 2026-04-22 19:54 | 46.91011 | 15.98109 | 11797 ft | 340 kts | 251° |
| 2026-04-22 19:55 | 46.90138 | 15.94949 | 11312 ft | 339 kts | 251° |
| 2026-04-22 19:55 | 46.89257 | 15.91759 | 10840 ft | 337 kts | 251° |
| 2026-04-22 19:55 | 46.88386 | 15.88602 | 10364 ft | 334 kts | 251° |
| 2026-04-22 19:55 | 46.87521 | 15.85473 | 9864 ft | 327 kts | 251° |
| 2026-04-22 19:56 | 46.86681 | 15.82458 | 9345 ft | 312 kts | 251° |
| 2026-04-22 19:56 | 46.85878 | 15.79589 | 8846 ft | 299 kts | 251° |
| 2026-04-22 19:56 | 46.85103 | 15.76824 | 8348 ft | 290 kts | 252° |
| 2026-04-22 19:56 | 46.84346 | 15.74108 | 7857 ft | 287 kts | 252° |
| 2026-04-22 19:57 | 46.83596 | 15.71414 | 7373 ft | 285 kts | 252° |
| 2026-04-22 19:57 | 46.82850 | 15.68734 | 6895 ft | 284 kts | 252° |
| 2026-04-22 19:57 | 46.82109 | 15.66075 | 6399 ft | 279 kts | 251° |
| 2026-04-22 19:57 | 46.81389 | 15.63498 | 5895 ft | 269 kts | 252° |
| 2026-04-22 19:58 | 46.80888 | 15.60952 | 5405 ft | 254 kts | 269° |
| 2026-04-22 19:58 | 46.80948 | 15.58456 | 4936 ft | 241 kts | 287° |
| 2026-04-22 19:58 | 46.81315 | 15.56144 | 4432 ft | 234 kts | 288° |
| 2026-04-22 19:58 | 46.81677 | 15.53836 | 3931 ft | 233 kts | 288° |
| 2026-04-22 19:59 | 46.82035 | 15.51542 | 3462 ft | 230 kts | 288° |
| 2026-04-22 20:00 | 46.87587 | 15.47124 | 3009 ft | 154 kts | 352° |
| 2026-04-22 20:00 | 46.88355 | 15.46914 | 2961 ft | 153 kts | 352° |
| 2026-04-22 20:01 | 46.89365 | 15.46637 | 2825 ft | 143 kts | 352° |
| 2026-04-22 20:01 | 46.90291 | 15.46383 | 2669 ft | 130 kts | 352° |
| 2026-04-22 20:01 | 46.91166 | 15.46143 | 2486 ft | 126 kts | 352° |
| 2026-04-22 20:01 | 46.92030 | 15.45907 | 2319 ft | 126 kts | 352° |
| 2026-04-22 20:02 | 46.92602 | 15.45750 | 2204 ft | 126 kts | 352° |
| 2026-04-22 20:02 | 46.93462 | 15.45515 | 2027 ft | 126 kts | 351° |
| 2026-04-22 20:02 | 46.94331 | 15.45278 | 1827 ft | 128 kts | 350° |
| 2026-04-22 20:02 | 46.95207 | 15.45038 | 1657 ft | 128 kts | 349° |
| 2026-04-22 20:03 | 46.96084 | 15.44795 | 1478 ft | 129 kts | 348° |
| 2026-04-22 20:03 | 46.96967 | 15.44551 | 1304 ft | 129 kts | 348° |
| 2026-04-22 20:03 | 46.97855 | 15.44310 | 1144 ft | 129 kts | 348° |
| 2026-04-22 20:03 | 46.98677 | 15.44083 | 1105 ft | 104 kts | 349° |
| 2026-04-22 20:04 | 46.99224 | 15.43930 | 1110 ft | 60 kts | 349° |
| 2026-04-22 20:04 | 46.99488 | 15.43859 | 1112 ft | 30 kts | 350° |
| 2026-04-22 20:04 | 46.99697 | 15.43858 | 1114 ft | 30 kts | 10° |
| 2026-04-22 20:04 | 46.99842 | 15.43910 | 1116 ft | 18 kts | 16° |
| 2026-04-22 20:05 | 46.99916 | 15.43982 | 1112 ft | 8 kts | 64° |
| 2026-04-22 20:05 | 46.99932 | 15.44056 | 1116 ft | 7 kts | 78° |
| 2026-04-22 20:05 | 46.99926 | 15.44121 | 1117 ft | 6 kts | 121° |
| 2026-04-22 20:05 | 46.99895 | 15.44147 | 1115 ft | 6 kts | 168° |
| 2026-04-22 20:06 | 46.99876 | 15.44153 | 1115 ft | 6 kts | 168° |
| 2026-04-22 20:06 | 46.99862 | 15.44157 | 1110 ft | 6 kts | 168° |
| 2026-04-22 20:06 | 46.99818 | 15.44170 | 1113 ft | 7 kts | 168° |
| 2026-04-22 20:07 | 46.99771 | 15.44184 | 1114 ft | 7 kts | 169° |
| 2026-04-22 20:07 | 46.99721 | 15.44197 | 1106 ft | 7 kts | 170° |
| 2026-04-22 20:07 | 46.99695 | 15.44204 | 1111 ft | 7 kts | 170° |
| 2026-04-22 20:07 | 46.99645 | 15.44222 | 1108 ft | 8 kts | 155° |
| 2026-04-22 20:08 | 46.99617 | 15.44265 | 1109 ft | 4 kts | 128° |
| 2026-04-22 20:08 | 46.99599 | 15.44301 | 1113 ft | 4 kts | 127° |
| 2026-04-22 20:08 | 46.99590 | 15.44319 | 1108 ft | 0 kts | 127° |
| 2026-04-22 20:08 | 46.99588 | 15.44322 | 1108 ft | 0 kts | 127° |